Time;durP1;ratioP1;P1;durP2;ratioP2;P2;SDS_P1;SDS_P2;PMS_P1;PMS_P2;Temp;Humidity;BMP_temperature;BMP_pressure;BME280_temperature;BME280_humidity;BME280_pressure;Samples;Min_cycle;Max_cycle;Signal;HPM_P1;HPM_P2
2021/12/19 00:09:00;;;;;;;22.88;15.30;;;;;;;7.21;80.64;101933.25;10233438;28;20121;-57
2021/12/19 00:13:53;;;;;;;19.85;14.73;;;;;;;7.07;80.74;101902.00;10218733;28;20055;-58
2021/12/19 00:18:55;;;;;;;19.98;14.45;;;;;;;7.20;80.72;101928.88;10245434;28;20483;-57
2021/12/19 00:23:57;;;;;;;18.42;14.68;;;;;;;7.07;80.96;101926.72;10233465;28;20126;-56
2021/12/19 00:29:00;;;;;;;22.48;15.15;;;;;;;7.08;81.37;101904.59;10240152;28;20519;-56
2021/12/19 00:34:02;;;;;;;21.15;15.57;;;;;;;7.03;81.44;101925.09;10217652;28;20053;-56
2021/12/19 00:39:04;;;;;;;18.65;14.20;;;;;;;7.07;81.45;101918.78;10244167;28;20457;-56
2021/12/19 00:44:11;;;;;;;17.30;13.45;;;;;;;7.12;81.65;101907.16;10240257;28;20146;-60
2021/12/19 00:49:13;;;;;;;20.08;15.35;;;;;;;7.16;80.95;101895.47;10232003;28;20142;-57
2021/12/19 00:54:15;;;;;;;18.35;14.07;;;;;;;7.25;81.11;101896.00;10248301;28;20102;-55
2021/12/19 00:59:17;;;;;;;20.95;14.70;;;;;;;7.22;80.93;101884.66;10248154;28;20055;-56
2021/12/19 01:04:20;;;;;;;20.73;15.32;;;;;;;7.16;81.44;101884.91;10243954;28;20126;-55
2021/12/19 01:09:21;;;;;;;20.58;15.65;;;;;;;7.15;80.95;101876.09;10237618;28;20624;-55
2021/12/19 01:14:23;;;;;;;21.58;14.73;;;;;;;7.22;80.92;101868.75;10242053;28;20603;-62
2021/12/19 01:19:24;;;;;;;20.25;14.82;;;;;;;7.26;81.00;101873.00;10258012;28;20551;-56
2021/12/19 01:24:26;;;;;;;19.42;13.93;;;;;;;7.21;81.27;101877.63;10223110;28;20047;-56
2021/12/19 01:29:28;;;;;;;22.55;14.35;;;;;;;7.15;81.27;101884.03;10239168;28;20564;-56
2021/12/19 01:34:30;;;;;;;19.67;14.48;;;;;;;7.19;81.10;101874.19;10226963;28;20390;-60
2021/12/19 01:39:31;;;;;;;21.08;14.95;;;;;;;7.08;80.98;101840.19;10253474;28;20047;-56
2021/12/19 01:44:32;;;;;;;18.42;14.68;;;;;;;7.28;80.93;101863.22;10217088;28;20051;-56
2021/12/19 01:49:34;;;;;;;19.23;14.77;;;;;;;7.28;80.56;101865.88;10250119;28;20551;-57
2021/12/19 01:54:35;;;;;;;21.05;14.88;;;;;;;7.26;80.99;101849.16;10245641;28;20048;-57
2021/12/19 01:59:37;;;;;;;20.77;14.80;;;;;;;7.19;80.97;101853.88;10242522;28;20327;-55
2021/12/19 02:04:38;;;;;;;19.23;14.82;;;;;;;7.20;81.00;101841.47;10241089;28;20424;-56
2021/12/19 02:09:44;;;;;;;16.83;13.60;;;;;;;7.22;80.97;101847.56;10244076;28;20070;-56
2021/12/19 02:14:46;;;;;;;17.92;13.05;;;;;;;7.21;81.12;101851.16;10247095;28;20125;-56
2021/12/19 02:19:49;;;;;;;17.48;13.60;;;;;;;7.27;80.87;101842.94;10242428;28;22310;-56
2021/12/19 02:24:50;;;;;;;17.13;13.25;;;;;;;7.28;80.56;101842.03;10237864;28;20146;-55
2021/12/19 02:29:52;;;;;;;19.02;14.15;;;;;;;7.27;80.49;101845.59;10248555;28;20046;-55
2021/12/19 02:34:55;;;;;;;15.52;11.48;;;;;;;7.32;80.64;101843.63;10224109;28;20126;-55
2021/12/19 02:50:23;;;;;;;18.83;12.40;;;;;;;7.18;81.07;101819.50;10272633;28;20043;-65
2021/12/19 02:55:24;;;;;;;19.35;13.57;;;;;;;7.21;81.05;101835.25;10272110;28;20126;-65
2021/12/19 03:00:26;;;;;;;15.55;12.07;;;;;;;7.28;80.86;101826.16;10268804;28;20053;-66
2021/12/19 03:05:30;;;;;;;15.48;11.93;;;;;;;7.30;80.44;101824.28;10254040;28;20050;-65
2021/12/19 03:21:01;;;;;;;16.95;12.45;;;;;;;7.21;80.64;101809.63;10270837;28;20070;-66
2021/12/19 03:26:03;;;;;;;15.00;11.85;;;;;;;7.27;80.45;101805.88;10271261;28;20125;-66
2021/12/19 03:31:05;;;;;;;16.35;12.20;;;;;;;7.35;80.62;101793.16;10267329;28;20146;-66
2021/12/19 03:36:07;;;;;;;16.02;12.20;;;;;;;7.33;80.78;101792.38;10270667;28;20123;-66
2021/12/19 03:41:22;;;;;;;16.92;11.90;;;;;;;7.27;80.43;101784.69;10268216;28;20050;-66
2021/12/19 03:46:24;;;;;;;16.80;12.13;;;;;;;7.32;80.83;101790.63;10251198;28;20117;-65
2021/12/19 03:51:25;;;;;;;15.57;11.55;;;;;;;7.31;80.83;101783.63;10268057;28;20042;-65
2021/12/19 03:56:27;;;;;;;19.13;12.60;;;;;;;7.33;80.47;101780.91;10268324;28;20610;-65
2021/12/19 04:01:28;;;;;;;16.17;12.68;;;;;;;7.38;80.65;101774.47;10267278;28;20062;-65
2021/12/19 04:06:29;;;;;;;11.68;9.63;;;;;;;7.40;79.41;101770.00;10250932;28;20135;-66
2021/12/19 04:11:31;;;;;;;8.13;7.32;;;;;;;7.41;78.01;101757.59;10269034;28;20069;-66
2021/12/19 04:16:33;;;;;;;9.27;7.57;;;;;;;7.51;77.39;101758.91;10267578;28;20129;-65
2021/12/19 04:21:34;;;;;;;6.80;6.03;;;;;;;7.54;76.31;101742.03;10249789;28;20130;-67
2021/12/19 04:26:35;;;;;;;6.38;5.70;;;;;;;7.43;75.78;101735.41;10266890;28;20480;-66
2021/12/19 04:31:37;;;;;;;5.45;4.95;;;;;;;7.40;74.94;101721.41;10247271;28;20047;-66
2021/12/19 04:36:42;;;;;;;5.45;4.95;;;;;;;7.41;75.57;101710.75;10267968;28;20129;-66
2021/12/19 04:57:49;;;;;;;12.13;9.93;;;;;;;7.23;78.10;101706.28;10264277;28;20039;-65
2021/12/19 05:02:56;;;;;;;11.63;10.20;;;;;;;7.20;78.14;101707.25;10266392;28;20047;-65
2021/12/19 05:18:41;;;;;;;11.95;9.88;;;;;;;6.98;78.72;101686.16;10265310;28;20940;-66
2021/12/19 05:28:48;;;;;;;;;;;;;;;7.02;79.08;101695.66;10265444;28;20129;-65
2021/12/19 05:33:49;;;;;;;9.43;8.38;;;;;;;7.08;78.35;101694.53;10264349;28;20276;-66
2021/12/19 05:49:15;;;;;;;8.73;7.43;;;;;;;7.15;77.50;101689.88;10264646;28;20134;-66
2021/12/19 05:54:17;;;;;;;8.85;7.95;;;;;;;7.01;77.29;101686.03;10247321;28;20066;-66
2021/12/19 05:59:19;;;;;;;8.25;7.40;;;;;;;6.95;77.61;101669.53;10262455;28;20110;-65
2021/12/19 06:04:20;;;;;;;8.07;7.28;;;;;;;6.96;77.60;101672.09;10248403;28;20390;-65
2021/12/19 06:09:22;;;;;;;7.97;6.60;;;;;;;6.96;77.44;101673.91;10263704;28;20138;-65
2021/12/19 06:14:25;;;;;;;8.80;7.13;;;;;;;6.98;77.84;101670.28;10267232;28;20038;-66
2021/12/19 06:19:27;;;;;;;9.60;7.50;;;;;;;6.98;77.72;101659.69;10263779;28;20062;-65
2021/12/19 06:24:28;;;;;;;9.80;7.85;;;;;;;7.06;77.20;101667.28;10265119;28;20150;-66
2021/12/19 06:29:31;;;;;;;8.48;7.00;;;;;;;7.16;77.03;101663.31;10261361;28;20049;-66
2021/12/19 06:34:33;;;;;;;10.88;8.10;;;;;;;7.23;77.22;101666.53;10251961;28;20050;-65
2021/12/19 06:39:35;;;;;;;10.35;8.68;;;;;;;7.21;76.68;101655.16;10251381;28;20571;-66
2021/12/19 06:44:36;;;;;;;12.27;9.63;;;;;;;7.11;77.39;101653.84;10250879;28;20059;-64
2021/12/19 06:49:38;;;;;;;13.30;9.85;;;;;;;6.98;77.77;101627.91;10231868;28;20049;-65
2021/12/19 06:54:39;;;;;;;10.30;8.23;;;;;;;7.06;78.18;101636.38;10245783;28;20042;-64
2021/12/19 06:59:41;;;;;;;11.73;8.98;;;;;;;7.08;78.38;101629.19;10251786;28;20161;-65
2021/12/19 07:04:45;;;;;;;12.95;10.38;;;;;;;7.05;78.52;101629.34;10252097;28;20078;-63
2021/12/19 07:09:47;;;;;;;13.73;10.13;;;;;;;7.02;78.86;101637.41;10251331;28;20063;-63
2021/12/19 07:14:48;;;;;;;13.70;10.43;;;;;;;7.02;78.84;101624.19;10252117;28;20426;-63
2021/12/19 07:19:50;;;;;;;12.60;10.20;;;;;;;7.12;79.55;101619.34;10252908;28;20047;-65
2021/12/19 07:24:52;;;;;;;13.43;10.90;;;;;;;7.08;78.79;101608.00;10231124;28;20051;-65
2021/12/19 07:29:56;;;;;;;18.60;12.45;;;;;;;6.92;79.17;101612.28;10250254;28;20055;-64
2021/12/19 07:34:58;;;;;;;14.70;12.20;;;;;;;6.91;79.36;101605.28;10232976;28;20051;-64
2021/12/19 07:40:11;;;;;;;15.48;11.93;;;;;;;6.96;79.37;101613.84;10232069;28;20054;-64
2021/12/19 07:45:14;;;;;;;14.18;11.18;;;;;;;7.00;79.18;101615.44;10251654;28;20065;-65
2021/12/19 07:50:16;;;;;;;15.98;12.00;;;;;;;7.05;79.00;101607.31;10249194;28;20065;-65
2021/12/19 07:55:18;;;;;;;15.75;11.93;;;;;;;7.01;78.99;101611.00;10250432;28;20042;-64
2021/12/19 08:00:20;;;;;;;15.20;12.25;;;;;;;6.99;79.41;101605.78;10250594;28;20054;-64
2021/12/19 08:05:22;;;;;;;17.05;12.27;;;;;;;7.02;79.10;101612.72;10249479;28;20055;-65
2021/12/19 08:15:35;;;;;;;15.50;13.02;;;;;;;6.94;79.21;101596.34;10249851;28;20090;-64
2021/12/19 08:20:36;;;;;;;16.77;13.13;;;;;;;6.99;78.77;101595.19;10227863;28;20170;-64
2021/12/19 08:25:38;;;;;;;15.55;13.48;;;;;;;7.00;79.21;101582.84;10248421;28;20058;-66
2021/12/19 08:30:39;;;;;;;17.13;12.45;;;;;;;7.10;79.07;101581.50;10248273;28;20058;-63
2021/12/19 08:35:40;;;;;;;15.98;12.77;;;;;;;7.11;78.66;101574.41;10249494;28;20066;-64
2021/12/19 08:40:44;;;;;;;17.00;12.13;;;;;;;7.18;78.56;101559.97;10229715;28;20059;-65
2021/12/19 08:45:46;;;;;;;15.55;12.30;;;;;;;7.26;78.26;101552.50;10245527;28;20059;-62
2021/12/19 08:50:48;;;;;;;17.77;12.93;;;;;;;7.27;78.29;101543.66;10245971;28;20061;-63
2021/12/19 08:55:49;;;;;;;16.60;12.82;;;;;;;7.24;78.62;101557.03;10251401;28;20058;-65
2021/12/19 09:00:51;;;;;;;19.15;14.00;;;;;;;7.31;77.94;101555.84;10252035;28;20053;-66
2021/12/19 09:05:52;;;;;;;17.05;13.30;;;;;;;7.42;77.64;101557.97;10247826;28;20459;-65
2021/12/19 09:10:55;;;;;;;18.02;13.75;;;;;;;7.44;76.93;101545.50;10247123;28;20049;-64
2021/12/19 09:15:56;;;;;;;15.93;12.77;;;;;;;7.60;76.70;101540.34;10233024;28;20050;-66
2021/12/19 09:20:58;;;;;;;18.38;13.82;;;;;;;7.67;76.71;101540.91;10248054;28;20050;-64
2021/12/19 09:26:00;;;;;;;18.77;13.60;;;;;;;7.64;76.65;101546.34;10247160;28;20055;-63
2021/12/19 09:31:02;;;;;;;15.80;12.45;;;;;;;7.55;77.59;101537.03;10249793;28;20532;-64
2021/12/19 09:36:03;;;;;;;18.58;13.38;;;;;;;7.50;77.23;101528.47;10248506;28;20053;-65
2021/12/19 09:41:17;;;;;;;17.77;13.15;;;;;;;7.75;76.57;101544.91;10247558;28;20061;-64
2021/12/19 09:46:21;;;;;;;16.38;13.80;;;;;;;7.83;76.09;101535.75;10247605;28;20053;-64
2021/12/19 09:51:23;;;;;;;18.52;14.55;;;;;;;8.02;74.94;101536.56;10244929;28;20057;-64
2021/12/19 09:56:24;;;;;;;16.02;12.32;;;;;;;8.08;74.99;101514.19;10246582;28;20497;-63
2021/12/19 10:01:26;;;;;;;17.83;13.80;;;;;;;8.16;73.69;101511.16;10231996;28;20561;-65
2021/12/19 10:06:29;;;;;;;16.10;12.82;;;;;;;8.52;73.46;101504.94;10247390;28;20416;-63
2021/12/19 10:11:47;;;;;;;16.50;12.15;;;;;;;8.63;71.64;101492.81;10254124;28;20425;-63
2021/12/19 10:16:49;;;;;;;18.92;13.63;;;;;;;8.88;70.72;101488.00;10253306;28;20047;-64
2021/12/19 10:21:50;;;;;;;18.80;13.15;;;;;;;8.97;70.42;101471.56;10253682;28;20059;-64
2021/12/19 10:26:52;;;;;;;18.92;13.82;;;;;;;9.16;70.07;101463.44;10252372;28;20108;-64
2021/12/19 10:32:04;;;;;;;17.33;13.27;;;;;;;9.43;69.37;101461.03;10246667;28;20066;-64
2021/12/19 10:37:05;;;;;;;16.05;13.48;;;;;;;9.72;68.31;101447.88;10253999;28;20046;-64
2021/12/19 10:42:09;;;;;;;17.50;13.65;;;;;;;10.08;66.78;101430.72;10254432;28;20064;-64
2021/12/19 10:47:24;;;;;;;17.80;13.10;;;;;;;10.38;64.76;101429.84;10253631;28;20051;-64
2021/12/19 10:52:34;;;;;;;17.63;13.82;;;;;;;11.03;62.76;101426.66;10235008;28;20053;-64
2021/12/19 10:57:43;;;;;;;19.10;14.40;;;;;;;11.80;60.20;101423.47;10250633;28;20055;-64
2021/12/19 11:02:44;;;;;;;16.60;12.73;;;;;;;12.83;55.31;101400.34;10249834;28;20053;-64
2021/12/19 11:08:03;;;;;;;15.45;11.95;;;;;;;12.37;56.30;101393.78;10253932;28;20039;-64
2021/12/19 11:13:16;;;;;;;14.13;10.68;;;;;;;11.92;58.30;101387.97;10240045;28;20047;-64
2021/12/19 11:18:17;;;;;;;14.07;11.38;;;;;;;11.80;57.77;101383.44;10249775;28;20709;-65
2021/12/19 11:23:22;;;;;;;15.15;11.05;;;;;;;12.34;56.35;101366.44;10248076;28;20066;-65
2021/12/19 11:28:23;;;;;;;15.38;12.13;;;;;;;12.73;56.08;101330.69;10226725;28;20524;-66
2021/12/19 11:34:03;;;;;;;13.73;11.75;;;;;;;13.93;52.35;101330.72;10242807;28;20051;-66
2021/12/19 11:39:06;;;;;;;15.77;12.38;;;;;;;16.68;46.10;101316.00;10234551;28;20472;-67
2021/12/19 11:44:09;;;;;;;14.60;11.67;;;;;;;18.06;42.54;101309.66;10249946;28;20224;-67
2021/12/19 11:49:18;;;;;;;12.43;10.40;;;;;;;19.98;37.62;101296.97;10249232;28;20055;-65
2021/12/19 11:54:19;;;;;;;12.52;10.57;;;;;;;22.85;33.88;101304.34;10240457;28;20057;-66
2021/12/19 11:59:38;;;;;;;11.02;9.93;;;;;;;24.35;30.04;101275.66;10247306;28;20061;-68
2021/12/19 12:04:40;;;;;;;12.73;11.52;;;;;;;24.57;29.46;101264.81;10227310;28;20042;-67
2021/12/19 12:09:55;;;;;;;12.75;11.07;;;;;;;23.47;29.68;101264.53;10246270;28;20065;-68
2021/12/19 12:15:03;;;;;;;12.50;11.20;;;;;;;23.51;29.32;101260.41;10250235;28;20057;-68
2021/12/19 12:20:14;;;;;;;11.65;10.45;;;;;;;24.06;28.97;101252.03;10229055;28;20051;-67
2021/12/19 12:25:18;;;;;;;11.50;10.40;;;;;;;20.86;33.41;101257.97;10249863;28;20066;-68
2021/12/19 12:30:25;;;;;;;12.02;10.63;;;;;;;16.64;41.21;101258.16;10247882;28;20043;-68
2021/12/19 12:35:28;;;;;;;12.45;11.13;;;;;;;14.78;45.69;101252.53;10247548;28;20065;-67
2021/12/19 12:40:48;;;;;;;13.32;11.25;;;;;;;13.61;49.06;101245.78;10246808;28;20158;-66
2021/12/19 12:46:01;;;;;;;14.68;11.32;;;;;;;13.12;52.27;101233.47;10248615;28;20118;-66
2021/12/19 12:51:06;;;;;;;13.07;11.07;;;;;;;12.58;52.66;101235.66;10250004;28;20051;-65
2021/12/19 12:56:13;;;;;;;12.77;11.38;;;;;;;12.40;53.79;101232.53;10241279;28;20065;-65
2021/12/19 13:01:37;;;;;;;15.18;12.10;;;;;;;12.35;53.66;101216.81;10249871;28;20413;-66
2021/12/19 13:06:52;;;;;;;15.65;12.20;;;;;;;12.18;54.37;101217.19;10248988;28;20034;-65
2021/12/19 13:12:05;;;;;;;14.93;12.40;;;;;;;11.88;55.45;101205.06;10226080;28;20053;-66
2021/12/19 13:17:10;;;;;;;16.05;12.98;;;;;;;11.71;56.49;101208.91;10243995;28;20065;-66
2021/12/19 13:22:20;;;;;;;13.07;11.13;;;;;;;11.47;57.04;101184.81;10244897;28;20066;-65
2021/12/19 13:27:32;;;;;;;15.50;11.82;;;;;;;11.27;57.42;101196.84;10235470;28;20569;-65
2021/12/19 13:32:43;;;;;;;12.88;10.73;;;;;;;11.43;57.40;101188.66;10246474;28;20057;-66
2021/12/19 13:37:53;;;;;;;12.90;10.90;;;;;;;11.32;57.52;101179.56;10245552;28;20414;-67
2021/12/19 13:43:03;;;;;;;15.48;11.88;;;;;;;11.04;58.03;101171.78;10245786;28;20256;-64
2021/12/19 13:48:09;;;;;;;14.43;11.30;;;;;;;10.72;59.55;101167.66;10263247;28;20054;-65
2021/12/19 13:53:13;;;;;;;15.10;11.68;;;;;;;10.58;60.17;101175.69;10297418;28;20060;-65
2021/12/19 13:58:16;;;;;;;14.82;12.02;;;;;;;10.38;60.22;101163.69;10252587;28;20042;-65
2021/12/19 14:03:35;;;;;;;16.25;12.43;;;;;;;10.33;61.07;101160.44;10254991;28;20493;-65
2021/12/19 14:08:37;;;;;;;13.00;9.82;;;;;;;10.28;61.17;101163.38;10232228;28;20051;-67
2021/12/19 14:13:41;;;;;;;14.25;10.68;;;;;;;10.13;61.54;101143.09;10250641;28;20504;-66
2021/12/19 14:18:44;;;;;;;14.80;11.20;;;;;;;10.09;62.06;101147.78;10232652;28;20061;-64
2021/12/19 14:23:45;;;;;;;15.10;11.95;;;;;;;9.94;62.27;101152.28;10252378;28;20047;-64
2021/12/19 14:28:50;;;;;;;11.23;9.55;;;;;;;9.89;62.28;101144.59;10259583;28;20054;-63
2021/12/19 14:33:53;;;;;;;12.20;10.15;;;;;;;9.77;62.30;101157.78;10269919;28;20110;-65
2021/12/19 14:39:01;;;;;;;13.60;10.10;;;;;;;9.75;62.71;101152.56;10256652;28;20043;-64
2021/12/19 14:44:17;;;;;;;13.40;11.40;;;;;;;9.68;62.76;101159.22;10256529;28;20050;-64
2021/12/19 14:49:19;;;;;;;12.93;11.02;;;;;;;9.68;63.11;101159.22;10235733;28;20043;-64
2021/12/19 14:54:23;;;;;;;13.68;10.77;;;;;;;9.68;63.92;101151.22;10236611;28;20065;-63
2021/12/19 14:59:27;;;;;;;;;;;;;;;9.74;63.46;101169.47;10255101;28;20042;-65
2021/12/19 15:04:29;;;;;;;9.40;8.20;;;;;;;9.54;61.66;101166.22;10255648;28;19922;-65
2021/12/19 15:09:31;;;;;;;9.07;7.72;;;;;;;9.35;62.70;101163.00;10246686;28;20090;-65
2021/12/19 15:14:32;;;;;;;9.43;7.32;;;;;;;9.08;63.40;101160.22;10249397;28;20055;-64
2021/12/19 15:19:33;;;;;;;8.23;7.43;;;;;;;9.19;62.86;101163.09;10250803;28;20050;-64
2021/12/19 15:24:36;;;;;;;7.75;6.97;;;;;;;9.09;62.32;101161.94;10259660;28;20055;-65
2021/12/19 15:29:38;;;;;;;7.10;6.35;;;;;;;8.60;64.02;101155.03;10252886;28;20055;-65
2021/12/19 15:34:40;;;;;;;9.32;8.38;;;;;;;8.51;64.49;101147.59;10251383;28;21182;-65
2021/12/19 15:39:42;;;;;;;9.27;6.65;;;;;;;8.50;64.56;101144.09;10231774;28;20513;-65
2021/12/19 15:44:43;;;;;;;7.78;6.97;;;;;;;8.48;64.75;101144.19;10242984;28;20081;-66
2021/12/19 15:49:45;;;;;;;8.38;7.38;;;;;;;8.42;65.88;101141.88;10246400;28;20594;-64
2021/12/19 15:54:46;;;;;;;7.45;6.72;;;;;;;8.40;65.36;101138.44;10251580;28;20043;-66
2021/12/19 15:59:47;;;;;;;7.80;6.78;;;;;;;8.25;66.13;101139.31;10248094;28;20157;-64
2021/12/19 16:04:49;;;;;;;8.45;7.65;;;;;;;8.21;66.05;101116.53;10248277;28;20466;-64
2021/12/19 16:09:50;;;;;;;8.18;6.85;;;;;;;8.17;66.61;101120.31;10230561;28;20114;-65
2021/12/19 16:14:52;;;;;;;8.63;7.72;;;;;;;8.11;67.11;101142.75;10249720;28;20080;-64
2021/12/19 16:19:53;;;;;;;8.43;7.53;;;;;;;8.33;66.70;101152.97;10246798;28;20082;-64
2021/12/19 16:24:55;;;;;;;10.43;7.88;;;;;;;8.28;66.27;101139.13;10249160;28;20133;-67
2021/12/19 16:29:56;;;;;;;8.13;7.10;;;;;;;7.88;67.20;101142.22;10234019;28;20054;-66
2021/12/19 16:34:57;;;;;;;9.02;7.32;;;;;;;7.52;68.53;101140.63;10230439;28;20051;-64
2021/12/19 16:39:59;;;;;;;9.18;7.22;;;;;;;7.71;68.37;101140.47;10248488;28;20920;-65
2021/12/19 16:45:00;;;;;;;8.80;7.90;;;;;;;7.85;68.72;101141.53;10249916;28;20050;-65
2021/12/19 16:50:06;;;;;;;8.00;6.97;;;;;;;8.08;67.77;101133.16;10248807;28;20056;-65
2021/12/19 16:55:07;;;;;;;8.23;6.93;;;;;;;8.12;67.54;101132.06;10247683;28;20878;-66
2021/12/19 17:00:09;;;;;;;12.85;8.02;;;;;;;8.06;67.56;101123.56;10236000;28;20833;-65
2021/12/19 17:05:11;;;;;;;8.43;7.53;;;;;;;8.04;67.24;101115.69;10237169;28;20065;-65
2021/12/19 17:10:13;;;;;;;9.18;8.13;;;;;;;8.37;67.29;101130.66;10237962;28;20047;-65
2021/12/19 17:15:15;;;;;;;8.98;8.07;;;;;;;8.22;67.48;101124.41;10243432;28;20054;-65
2021/12/19 17:20:17;;;;;;;9.00;7.90;;;;;;;8.11;67.53;101134.78;10243295;28;20054;-65
2021/12/19 17:25:19;;;;;;;10.02;8.95;;;;;;;8.15;67.48;101133.66;10228812;28;20053;-65
2021/12/19 17:30:20;;;;;;;9.63;8.35;;;;;;;8.04;66.75;101139.56;10246757;28;20141;-65
2021/12/19 17:35:22;;;;;;;11.05;9.35;;;;;;;8.23;66.84;101130.59;10244927;28;20085;-65
2021/12/19 17:45:40;;;;;;;11.07;9.45;;;;;;;8.14;66.34;101127.50;10242957;28;20073;-65
2021/12/19 17:50:41;;;;;;;14.02;11.70;;;;;;;8.09;67.39;101129.56;10246449;28;20235;-65
2021/12/19 17:55:43;;;;;;;11.48;10.23;;;;;;;7.98;65.77;101134.59;10246482;28;20047;-66
2021/12/19 18:00:45;;;;;;;13.73;11.48;;;;;;;8.20;67.02;101130.78;10224746;28;20066;-65
2021/12/19 18:05:52;;;;;;;14.13;11.65;;;;;;;8.26;65.52;101125.97;10247261;28;20196;-65
2021/12/19 18:10:54;;;;;;;14.32;12.55;;;;;;;8.33;65.68;101134.41;10243415;28;20054;-65
2021/12/19 18:15:57;;;;;;;12.10;10.63;;;;;;;8.12;65.21;101134.69;10243563;28;20101;-65
2021/12/19 18:20:59;;;;;;;12.60;10.93;;;;;;;8.25;65.16;101126.03;10244866;28;20071;-64
2021/12/19 18:26:01;;;;;;;12.00;10.52;;;;;;;8.18;65.36;101117.59;10226540;28;20043;-64
2021/12/19 18:31:04;;;;;;;12.30;10.63;;;;;;;8.36;65.18;101128.97;10251053;28;20531;-64
2021/12/19 18:36:14;;;;;;;17.60;14.30;;;;;;;8.03;65.72;101124.63;10251862;28;20050;-65
2021/12/19 18:41:23;;;;;;;14.40;12.32;;;;;;;7.90;66.53;101129.72;10233570;28;20148;-64
2021/12/19 18:51:45;;;;;;;12.30;10.10;;;;;;;7.66;66.24;101110.72;10252366;28;20502;-64
2021/12/19 18:56:46;;;;;;;9.57;8.50;;;;;;;7.96;66.54;101123.25;10251722;28;20046;-64
2021/12/19 19:01:58;;;;;;;11.40;9.32;;;;;;;7.85;66.15;101120.31;10250907;28;20051;-65
2021/12/19 19:07:01;;;;;;;10.95;8.55;;;;;;;7.96;66.57;101133.84;10252315;28;20065;-64
2021/12/19 19:12:02;;;;;;;11.50;10.23;;;;;;;8.06;65.99;101124.44;10254614;28;20050;-64
2021/12/19 19:17:05;;;;;;;10.23;8.35;;;;;;;8.05;66.74;101128.03;10254606;28;20046;-64
2021/12/19 19:22:07;;;;;;;8.63;6.38;;;;;;;7.99;66.30;101132.81;10250300;28;20162;-64
2021/12/19 19:27:08;;;;;;;7.60;6.40;;;;;;;8.21;65.80;101138.63;10250812;28;20440;-65
2021/12/19 19:32:10;;;;;;;7.28;6.07;;;;;;;8.30;65.51;101132.81;10250003;28;20054;-65
2021/12/19 19:37:12;;;;;;;8.32;7.00;;;;;;;8.13;66.27;101136.38;10251554;28;20167;-65
2021/12/19 19:52:34;;;;;;;9.38;7.45;;;;;;;8.00;67.13;101132.75;10250495;28;20257;-65
2021/12/19 19:57:36;;;;;;;5.95;5.28;;;;;;;7.66;68.48;101137.25;10251062;28;20050;-64
2021/12/19 20:02:38;;;;;;;7.47;6.78;;;;;;;8.09;67.28;101132.22;10248201;28;20059;-65
2021/12/19 20:07:40;;;;;;;6.50;5.70;;;;;;;7.97;67.47;101127.59;10249072;28;20130;-64
2021/12/19 20:12:42;;;;;;;6.55;5.13;;;;;;;7.77;67.78;101123.41;10251548;28;20106;-64
2021/12/19 20:17:45;;;;;;;6.55;5.03;;;;;;;8.10;66.82;101128.63;10229261;28;20522;-65
2021/12/19 20:22:47;;;;;;;5.05;4.40;;;;;;;8.21;66.74;101143.06;10229775;28;20051;-65
2021/12/19 20:27:50;;;;;;;5.65;4.15;;;;;;;7.90;67.66;101124.44;10247306;28;20065;-64
2021/12/19 20:32:54;;;;;;;4.55;3.60;;;;;;;7.85;67.58;101137.09;10249277;28;20061;-65
2021/12/19 20:37:56;;;;;;;4.78;3.40;;;;;;;7.67;68.32;101146.03;10248577;28;20058;-64
2021/12/19 20:42:57;;;;;;;3.60;3.15;;;;;;;8.00;67.67;101118.63;10248703;28;20046;-66
2021/12/19 20:48:02;;;;;;;3.35;2.30;;;;;;;8.07;66.82;101125.28;10247139;28;20055;-65
2021/12/19 20:53:05;;;;;;;3.38;2.30;;;;;;;8.17;66.98;101129.13;10247651;28;20200;-65
2021/12/19 20:58:07;;;;;;;3.05;2.25;;;;;;;7.82;67.10;101131.97;10244451;28;20043;-68
2021/12/19 21:03:09;;;;;;;3.63;1.88;;;;;;;7.73;67.18;101121.84;10265605;28;20066;-69
2021/12/19 21:08:12;;;;;;;2.83;2.13;;;;;;;7.62;67.90;101114.47;10268189;28;20054;-67
2021/12/19 21:13:15;;;;;;;2.33;1.63;;;;;;;8.01;67.36;101122.97;10271547;28;20046;-67
2021/12/19 21:23:38;;;;;;;2.03;1.73;;;;;;;8.12;67.04;101113.50;10281987;28;20121;-68
2021/12/19 21:28:39;;;;;;;3.58;1.90;;;;;;;8.15;67.00;101096.53;10267132;28;20072;-68
2021/12/19 21:33:45;;;;;;;2.00;1.50;;;;;;;8.19;66.95;101097.22;10267427;28;20723;-68
2021/12/19 21:38:47;;;;;;;1.55;1.30;;;;;;;8.23;66.45;101085.50;10266948;28;20043;-68
2021/12/19 21:43:50;;;;;;;1.90;1.10;;;;;;;8.29;66.57;101083.34;10267271;28;20506;-67
2021/12/19 21:48:53;;;;;;;1.42;1.33;;;;;;;8.34;66.46;101096.34;10271991;28;20065;-67
2021/12/19 21:53:54;;;;;;;2.47;0.80;;;;;;;8.38;66.12;101086.41;10276708;28;20050;-68
2021/12/19 21:58:56;;;;;;;1.92;1.10;;;;;;;8.40;66.61;101085.38;10273024;28;20073;-67
2021/12/19 22:03:58;;;;;;;1.50;1.10;;;;;;;8.39;65.89;101086.34;10251631;28;20054;-68
2021/12/19 22:09:01;;;;;;;1.83;1.20;;;;;;;8.25;66.58;101088.91;10272598;28;20056;-68
2021/12/19 22:19:08;;;;;;;1.52;0.90;;;;;;;8.32;66.26;101071.72;10273244;28;20049;-67
2021/12/19 22:24:09;;;;;;;1.25;0.70;;;;;;;8.11;66.79;101069.34;10243952;28;20046;-68
2021/12/19 22:29:11;;;;;;;0.73;0.60;;;;;;;8.22;66.75;101066.06;10255296;28;20062;-66
2021/12/19 22:34:12;;;;;;;2.30;1.10;;;;;;;7.88;67.61;101072.44;10273994;28;20047;-66
2021/12/19 22:39:13;;;;;;;2.00;1.73;;;;;;;8.00;66.87;101061.16;10272523;28;20461;-67
2021/12/19 22:44:15;;;;;;;1.45;0.93;;;;;;;8.19;67.00;101054.78;10250883;28;20054;-66
2021/12/19 22:49:16;;;;;;;2.40;1.63;;;;;;;8.38;66.20;101060.72;10272930;28;20126;-67
2021/12/19 22:54:18;;;;;;;3.88;2.75;;;;;;;8.37;66.34;101058.16;10272656;28;20051;-66
2021/12/19 22:59:20;;;;;;;4.00;2.95;;;;;;;8.38;66.32;101060.72;10272701;28;20459;-67
2021/12/19 23:04:22;;;;;;;3.30;2.72;;;;;;;8.22;66.98;101041.34;10250205;28;20055;-67
2021/12/19 23:09:23;;;;;;;4.60;3.40;;;;;;;8.38;66.61;101049.28;10242594;28;20053;-67
2021/12/19 23:14:30;;;;;;;4.00;2.75;;;;;;;8.40;66.26;101040.25;10272580;28;20632;-68
2021/12/19 23:19:31;;;;;;;3.45;2.75;;;;;;;8.41;66.02;101039.31;10272029;28;20420;-68
2021/12/19 23:24:32;;;;;;;3.88;3.17;;;;;;;8.46;65.92;101037.28;10271981;28;20055;-67
2021/12/19 23:29:34;;;;;;;3.35;2.90;;;;;;;8.49;66.15;101031.78;10270496;28;20094;-68
2021/12/19 23:34:36;;;;;;;4.22;2.65;;;;;;;8.49;66.27;101031.78;10254844;28;20228;-66
2021/12/19 23:45:21;;;;;;;4.15;3.05;;;;;;;8.51;65.65;101018.44;10167771;28;20062;-66
2021/12/19 23:50:23;;;;;;;3.23;2.83;;;;;;;8.53;65.71;101021.88;10239644;28;20140;-69
2021/12/19 23:55:27;;;;;;;4.57;3.35;;;;;;;8.48;65.86;101014.19;10274668;28;20042;-67
